Time;durP1;ratioP1;P1;durP2;ratioP2;P2;SDS_P1;SDS_P2;PMS_P1;PMS_P2;Temp;Humidity;BMP_temperature;BMP_pressure;BME280_temperature;BME280_humidity;BME280_pressure;Samples;Min_cycle;Max_cycle;Signal;HPM_P1;HPM_P2
2022/10/16 00:01:39;;;;;;;;;;;;;;;6.16;58.71;100659.23;1708108;84;20217;-78
2022/10/16 00:04:06;;;;;;;;;;;;;;;6.10;58.90;100665.30;1708500;84;21155;-78
2022/10/16 00:06:32;;;;;;;;;;;;;;;6.05;59.02;100662.70;1708609;84;20512;-78
2022/10/16 00:09:00;;;;;;;;;;;;;;;6.00;58.97;100672.68;1708559;82;20496;-80
2022/10/16 00:11:33;;;;;;;;;;;;;;;5.91;59.26;100667.83;1708514;84;20214;-79
2022/10/16 00:14:00;;;;;;;;;;;;;;;5.84;59.55;100669.99;1708466;84;20233;-79
2022/10/16 00:16:27;;;;;;;;;;;;;;;5.76;59.99;100669.95;1708378;84;21134;-79
2022/10/16 00:18:55;;;;;;;;;;;;;;;5.69;60.16;100661.66;1708342;84;20226;-79
2022/10/16 00:21:23;;;;;;;;;;;;;;;5.62;60.43;100669.48;1708428;84;20245;-79
2022/10/16 00:23:55;;;;;;;;;;;;;;;5.55;60.53;100666.84;1708799;83;21038;-79
2022/10/16 00:26:21;;;;;;;;;;;;;;;5.49;60.78;100664.63;1708190;84;20220;-79
2022/10/16 00:28:50;;;;;;;;;;;;;;;5.43;61.19;100664.19;1708409;84;21194;-80
2022/10/16 00:31:18;;;;;;;;;;;;;;;5.37;61.40;100667.61;1708106;84;20197;-78
2022/10/16 00:33:45;;;;;;;;;;;;;;;5.34;61.74;100664.13;1708773;84;20143;-79
2022/10/16 00:36:13;;;;;;;;;;;;;;;5.30;61.75;100663.68;1708565;84;20178;-80
2022/10/16 00:38:39;;;;;;;;;;;;;;;5.28;61.92;100670.19;1708809;84;20185;-79
2022/10/16 00:41:07;;;;;;;;;;;;;;;5.29;61.80;100669.75;1708519;84;21103;-80
2022/10/16 00:43:38;;;;;;;;;;;;;;;5.30;61.85;100672.81;1708098;84;20677;-80
2022/10/16 00:46:15;;;;;;;;;;;;;;;5.31;61.79;100675.84;1708403;84;20217;-80
2022/10/16 00:48:43;;;;;;;;;;;;;;;5.33;61.84;100673.70;1700642;84;20276;-80
2022/10/16 00:51:09;;;;;;;;;;;;;;;5.35;62.07;100680.23;1708373;84;20213;-80
2022/10/16 00:53:36;;;;;;;;;;;;;;;5.36;62.03;100675.44;1708401;84;21111;-79
2022/10/16 00:56:03;;;;;;;;;;;;;;;5.36;61.90;100678.05;1708727;84;20174;-80
2022/10/16 00:58:29;;;;;;;;;;;;;;;5.36;61.81;100683.27;1708371;84;20209;-78
2022/10/16 01:00:56;;;;;;;;;;;;;;;5.37;61.93;100683.72;1708757;84;20336;-79
2022/10/16 01:03:31;;;;;;;;;;;;;;;5.36;61.85;100685.88;1708187;84;20228;-81
2022/10/16 01:06:17;;;;;;;;;;;;;;;5.37;61.87;100690.23;1708820;84;21221;-80
2022/10/16 01:08:51;;;;;;;;;;;;;;;5.38;61.87;100689.39;1708513;84;20178;-80
2022/10/16 01:11:34;;;;;;;;;;;;;;;5.37;61.82;100683.27;1705398;84;20237;-80
2022/10/16 01:14:03;;;;;;;;;;;;;;;5.39;61.85;100684.59;1708378;84;20167;-81
2022/10/16 01:16:36;;;;;;;;;;;;;;;5.40;61.81;100690.27;1708383;84;20130;-81
2022/10/16 01:19:16;;;;;;;;;;;;;;;5.39;61.83;100685.89;1708502;84;21554;-79
2022/10/16 01:21:44;;;;;;;;;;;;;;;5.39;62.18;100684.15;1708437;84;20135;-80
2022/10/16 01:24:29;;;;;;;;;;;;;;;5.38;61.91;100684.17;1708247;84;20241;-81
2022/10/16 01:27:14;;;;;;;;;;;;;;;5.37;61.87;100685.88;1708239;83;20613;-82
2022/10/16 01:30:09;;;;;;;;;;;;;;;5.37;62.04;100692.85;1708458;84;20212;-81
2022/10/16 01:32:49;;;;;;;;;;;;;;;5.35;62.24;100692.84;1708323;84;21181;-81
2022/10/16 01:35:28;;;;;;;;;;;;;;;5.32;62.38;100701.09;1708437;84;20205;-81
2022/10/16 01:38:03;;;;;;;;;;;;;;;5.28;62.44;100701.91;1708429;84;20205;-81
2022/10/16 01:40:31;;;;;;;;;;;;;;;5.24;62.56;100705.38;1708386;84;20202;-80
2022/10/16 01:43:03;;;;;;;;;;;;;;;5.19;62.64;100702.33;1708850;84;20205;-81
2022/10/16 01:45:31;;;;;;;;;;;;;;;5.16;62.64;100707.52;1708075;84;21672;-81
2022/10/16 01:47:58;;;;;;;;;;;;;;;5.12;62.96;100705.73;1708336;84;20304;-81
2022/10/16 01:50:26;;;;;;;;;;;;;;;5.07;63.10;100707.44;1708080;84;20189;-81
2022/10/16 01:52:52;;;;;;;;;;;;;;;5.00;63.18;100706.97;1708420;84;20197;-80
2022/10/16 01:55:22;;;;;;;;;;;;;;;4.92;63.45;100708.64;1682074;84;20213;-82
2022/10/16 01:57:49;;;;;;;;;;;;;;;4.84;63.61;100706.85;1682505;84;21798;-80
2022/10/16 02:00:16;;;;;;;;;;;;;;;4.77;63.80;100714.16;1708371;84;20195;-81
2022/10/16 02:02:44;;;;;;;;;;;;;;;4.73;63.96;100716.75;1708454;84;21074;-81
2022/10/16 02:05:15;;;;;;;;;;;;;;;4.67;64.06;100712.34;1708524;84;20170;-80
2022/10/16 02:07:42;;;;;;;;;;;;;;;4.62;64.22;100712.32;1708283;84;20209;-80
2022/10/16 02:10:08;;;;;;;;;;;;;;;4.57;64.44;100715.73;1708655;82;21191;-81
2022/10/16 02:12:36;;;;;;;;;;;;;;;4.51;64.53;100715.69;1708295;84;20214;-81
2022/10/16 02:15:03;;;;;;;;;;;;;;;4.43;64.81;100717.77;1682333;84;20344;-81
2022/10/16 02:17:31;;;;;;;;;;;;;;;4.38;64.99;100723.37;1708348;84;20535;-81
2022/10/16 02:19:57;;;;;;;;;;;;;;;4.30;65.31;100726.76;1708732;84;20229;-80
2022/10/16 02:22:39;;;;;;;;;;;;;;;4.23;65.45;100725.81;1708419;84;21151;-80
2022/10/16 02:25:17;;;;;;;;;;;;;;;4.12;65.64;100723.11;1708088;84;20206;-79
2022/10/16 02:28:03;;;;;;;;;;;;;;;4.07;65.93;100726.95;1708590;84;20277;-81
2022/10/16 02:30:35;;;;;;;;;;;;;;;4.04;66.00;100729.52;1708388;84;20225;-80
2022/10/16 02:33:02;;;;;;;;;;;;;;;4.00;66.22;100730.36;1708792;84;20185;-81
2022/10/16 02:35:29;;;;;;;;;;;;;;;3.94;66.16;100732.02;1708544;84;21178;-80
2022/10/16 02:37:55;;;;;;;;;;;;;;;3.85;66.46;100724.53;1708399;84;20280;-81
2022/10/16 02:40:23;;;;;;;;;;;;;;;3.80;66.80;100730.52;1708286;84;20201;-80
2022/10/16 02:42:53;;;;;;;;;;;;;;;3.76;67.06;100732.66;1682310;84;20138;-80
2022/10/16 02:45:19;;;;;;;;;;;;;;;3.73;67.39;100738.67;1708321;84;20234;-79
2022/10/16 02:47:47;;;;;;;;;;;;;;;3.71;67.63;100739.95;1708283;84;20202;-79
2022/10/16 02:50:14;;;;;;;;;;;;;;;3.70;67.83;100739.53;1708490;84;20508;-79
2022/10/16 02:52:40;;;;;;;;;;;;;;;3.69;67.96;100735.16;1708156;82;20206;-79
2022/10/16 02:55:07;;;;;;;;;;;;;;;3.69;68.20;100736.47;1708352;82;20135;-79
2022/10/16 02:57:35;;;;;;;;;;;;;;;3.68;68.39;100737.34;1708342;84;20225;-79
2022/10/16 03:00:01;;;;;;;;;;;;;;;3.67;68.39;100743.39;1708733;84;21128;-80
2022/10/16 03:02:28;;;;;;;;;;;;;;;3.67;68.66;100748.59;1708115;84;20193;-80
2022/10/16 03:04:55;;;;;;;;;;;;;;;3.65;69.00;100754.21;1708338;84;20205;-80
2022/10/16 03:07:23;;;;;;;;;;;;;;;3.63;69.30;100754.63;1708112;84;20146;-80
2022/10/16 03:09:49;;;;;;;;;;;;;;;3.61;69.57;100756.30;1708694;84;20221;-80
2022/10/16 03:12:16;;;;;;;;;;;;;;;3.59;69.80;100756.72;1708460;84;21046;-81
2022/10/16 03:14:43;;;;;;;;;;;;;;;3.58;70.19;100756.70;1708397;84;20508;-80
2022/10/16 03:17:12;;;;;;;;;;;;;;;3.54;70.37;100757.08;1708656;84;20622;-79
2022/10/16 03:19:39;;;;;;;;;;;;;;;3.52;70.69;100756.20;1708361;84;20520;-79
2022/10/16 03:22:05;;;;;;;;;;;;;;;3.50;70.93;100757.91;1708863;84;20579;-80
2022/10/16 03:24:32;;;;;;;;;;;;;;;3.48;71.50;100759.19;1708249;84;21286;-80
2022/10/16 03:26:58;;;;;;;;;;;;;;;3.46;71.98;100761.30;1708371;84;20230;-81
2022/10/16 03:29:25;;;;;;;;;;;;;;;3.44;72.20;100763.02;1697442;84;20179;-79
2022/10/16 03:31:51;;;;;;;;;;;;;;;3.40;72.51;100767.73;1696077;84;20167;-80
2022/10/16 03:34:18;;;;;;;;;;;;;;;3.35;72.42;100762.02;1695880;84;20190;-80
2022/10/16 03:36:45;;;;;;;;;;;;;;;3.29;72.54;100761.92;1695803;84;21158;-80
2022/10/16 03:39:12;;;;;;;;;;;;;;;3.26;72.87;100764.91;1695604;84;20290;-80
2022/10/16 03:41:38;;;;;;;;;;;;;;;3.22;72.77;100765.28;1695453;84;20201;-80
2022/10/16 03:44:05;;;;;;;;;;;;;;;3.19;73.29;100765.23;1695662;84;20528;-80
2022/10/16 03:46:32;;;;;;;;;;;;;;;3.15;73.95;100768.22;1695701;84;20190;-80
2022/10/16 03:48:58;;;;;;;;;;;;;;;3.14;73.96;100768.19;1695918;84;21148;-79
2022/10/16 03:51:24;;;;;;;;;;;;;;;3.11;74.22;100764.23;1695567;84;20186;-80
2022/10/16 03:53:50;;;;;;;;;;;;;;;3.08;74.50;100762.91;1695872;84;20164;-80
2022/10/16 03:56:17;;;;;;;;;;;;;;;3.05;74.69;100761.12;1695545;84;20509;-81
2022/10/16 03:58:43;;;;;;;;;;;;;;;3.05;74.92;100764.16;1695968;84;20182;-79
2022/10/16 04:01:09;;;;;;;;;;;;;;;3.03;75.24;100758.94;1695804;84;21552;-79
2022/10/16 04:03:36;;;;;;;;;;;;;;;3.03;75.56;100771.06;1695512;84;20147;-81
2022/10/16 04:06:03;;;;;;;;;;;;;;;3.01;75.80;100768.84;1695558;84;20217;-79
2022/10/16 04:08:30;;;;;;;;;;;;;;;3.02;75.87;100774.50;1695639;84;20210;-78
2022/10/16 04:10:56;;;;;;;;;;;;;;;3.01;76.00;100772.74;1696037;84;20504;-79
2022/10/16 04:13:23;;;;;;;;;;;;;;;3.00;76.00;100773.61;1695663;84;21253;-83
2022/10/16 04:15:49;;;;;;;;;;;;;;;2.98;76.08;100769.25;1695834;84;20198;-82
2022/10/16 04:18:16;;;;;;;;;;;;;;;2.98;76.12;100767.09;1695544;84;20500;-81
2022/10/16 04:20:44;;;;;;;;;;;;;;;2.95;76.18;100769.19;1695484;84;20470;-80
2022/10/16 04:23:11;;;;;;;;;;;;;;;2.94;76.18;100770.46;1696139;84;20477;-82
2022/10/16 04:25:38;;;;;;;;;;;;;;;2.94;76.32;100778.27;1695814;84;21246;-80
2022/10/16 04:28:04;;;;;;;;;;;;;;;2.93;76.11;100776.09;1698079;84;20154;-81
2022/10/16 04:30:33;;;;;;;;;;;;;;;2.92;76.36;100772.17;1708285;84;20237;-79
2022/10/16 04:32:59;;;;;;;;;;;;;;;2.92;76.29;100778.67;1708503;84;20197;-79
2022/10/16 04:35:26;;;;;;;;;;;;;;;2.94;76.39;100788.66;1708440;82;20156;-80
2022/10/16 04:37:52;;;;;;;;;;;;;;;2.93;76.54;100792.13;1708680;84;21135;-81
2022/10/16 04:40:18;;;;;;;;;;;;;;;2.92;76.70;100792.53;1708542;84;20197;-82
2022/10/16 04:42:45;;;;;;;;;;;;;;;2.91;76.68;100801.20;1708211;82;20496;-81
2022/10/16 04:45:11;;;;;;;;;;;;;;;2.92;76.89;100799.47;1708357;82;20484;-79
2022/10/16 04:47:38;;;;;;;;;;;;;;;2.93;77.01;100803.39;1708781;84;20233;-81
2022/10/16 04:50:06;;;;;;;;;;;;;;;2.94;77.03;100802.96;1708638;84;21253;-80
2022/10/16 04:52:34;;;;;;;;;;;;;;;2.95;76.91;100819.89;1708562;84;20184;-80
2022/10/16 04:55:02;;;;;;;;;;;;;;;2.95;76.81;100821.62;1708446;84;20201;-81
2022/10/16 04:57:29;;;;;;;;;;;;;;;2.94;76.85;100819.45;1708488;84;20157;-80
2022/10/16 04:59:56;;;;;;;;;;;;;;;2.96;76.85;100826.85;1708582;84;20146;-81
2022/10/16 05:02:22;;;;;;;;;;;;;;;2.97;77.03;100830.32;1708543;84;21148;-80
2022/10/16 05:04:49;;;;;;;;;;;;;;;2.97;77.17;100827.28;1708683;84;20201;-81
2022/10/16 05:07:15;;;;;;;;;;;;;;;2.98;77.24;100830.78;1708422;84;21075;-81
2022/10/16 05:09:41;;;;;;;;;;;;;;;3.01;77.46;100832.55;1708401;84;20193;-80
2022/10/16 05:12:07;;;;;;;;;;;;;;;3.03;77.66;100837.37;1708583;84;20190;-80
2022/10/16 05:14:35;;;;;;;;;;;;;;;3.07;77.75;100839.16;1708443;82;21147;-83
2022/10/16 05:17:02;;;;;;;;;;;;;;;3.11;77.89;100839.65;1708526;84;20197;-81
2022/10/16 05:19:28;;;;;;;;;;;;;;;3.16;77.97;100842.80;1708088;82;20201;-81
2022/10/16 05:21:55;;;;;;;;;;;;;;;3.23;77.93;100848.98;1708284;84;20142;-80
2022/10/16 05:24:21;;;;;;;;;;;;;;;3.32;78.15;100853.02;1708302;84;20225;-81
2022/10/16 05:26:48;;;;;;;;;;;;;;;3.40;78.28;100854.89;1708457;82;21563;-80
2022/10/16 05:29:14;;;;;;;;;;;;;;;3.49;78.38;100855.89;1702052;84;20442;-81
2022/10/16 05:31:41;;;;;;;;;;;;;;;3.58;78.20;100862.99;1695431;84;20487;-81
2022/10/16 05:34:07;;;;;;;;;;;;;;;3.66;78.23;100866.56;1695718;84;20263;-81
2022/10/16 05:36:34;;;;;;;;;;;;;;;3.76;78.03;100870.62;1696162;84;20178;-79
2022/10/16 05:39:00;;;;;;;;;;;;;;;3.84;77.99;100876.38;1695724;84;21079;-81
2022/10/16 05:41:27;;;;;;;;;;;;;;;3.92;78.18;100868.70;1696102;84;20341;-82
2022/10/16 05:43:53;;;;;;;;;;;;;;;4.04;78.03;100878.41;1695586;84;20238;-80
2022/10/16 05:46:20;;;;;;;;;;;;;;;4.14;77.81;100878.98;1695768;84;20205;-80
2022/10/16 05:48:47;;;;;;;;;;;;;;;4.26;77.59;100878.27;1695977;84;20171;-81
2022/10/16 05:51:14;;;;;;;;;;;;;;;4.39;77.32;100885.83;1695629;84;21206;-81
2022/10/16 05:53:41;;;;;;;;;;;;;;;4.52;77.01;100884.22;1695871;84;20273;-81
2022/10/16 05:56:09;;;;;;;;;;;;;;;4.65;76.71;100891.34;1695842;84;20234;-81
2022/10/16 05:58:36;;;;;;;;;;;;;;;4.77;75.71;100890.16;1696045;84;20127;-80
2022/10/16 06:01:10;;;;;;;;;;;;;;;4.90;75.61;100894.23;1695785;84;20214;-82
2022/10/16 06:03:37;;;;;;;;;;;;;;;5.02;74.85;100895.21;1696060;84;21124;-82
2022/10/16 06:06:13;;;;;;;;;;;;;;;5.15;74.36;100896.66;1695717;84;20194;-81
2022/10/16 06:08:41;;;;;;;;;;;;;;;5.30;73.54;100903.33;1695567;84;20258;-80
2022/10/16 06:11:10;;;;;;;;;;;;;;;5.44;73.06;100909.09;1695634;84;20210;-80
2022/10/16 06:13:36;;;;;;;;;;;;;;;5.58;72.41;100908.36;1695941;84;20445;-78
2022/10/16 06:16:05;;;;;;;;;;;;;;;5.72;71.89;100908.91;1695850;84;20453;-80
2022/10/16 06:18:31;;;;;;;;;;;;;;;5.85;71.34;100904.63;1695785;84;20206;-80
2022/10/16 06:20:58;;;;;;;;;;;;;;;5.98;70.91;100905.63;1696106;84;20206;-81
2022/10/16 06:23:25;;;;;;;;;;;;;;;6.10;70.70;100901.36;1695816;84;20214;-82
2022/10/16 06:25:51;;;;;;;;;;;;;;;6.24;70.19;100907.10;1695797;84;20190;-80
2022/10/16 06:28:18;;;;;;;;;;;;;;;6.37;69.68;100907.61;1695696;84;21142;-80
2022/10/16 06:30:45;;;;;;;;;;;;;;;6.52;69.29;100908.08;1708031;84;20205;-80
2022/10/16 06:33:12;;;;;;;;;;;;;;;6.67;68.81;100913.41;1708486;84;20249;-81
2022/10/16 06:35:38;;;;;;;;;;;;;;;6.81;68.00;100920.43;1708301;84;20221;-81
2022/10/16 06:38:04;;;;;;;;;;;;;;;6.93;67.50;100920.45;1708217;84;20452;-81
2022/10/16 06:40:31;;;;;;;;;;;;;;;7.07;67.05;100926.58;1708242;84;21158;-79
2022/10/16 06:42:57;;;;;;;;;;;;;;;7.22;66.46;100926.19;1708587;84;20198;-79
2022/10/16 06:45:24;;;;;;;;;;;;;;;7.35;65.84;100927.95;1708267;84;20208;-80
2022/10/16 06:47:51;;;;;;;;;;;;;;;7.51;65.29;100934.52;1708404;84;20209;-81
2022/10/16 06:50:17;;;;;;;;;;;;;;;7.65;64.82;100930.17;1708329;84;20171;-80
2022/10/16 06:52:43;;;;;;;;;;;;;;;7.76;64.16;100927.09;1708601;84;21798;-80
2022/10/16 06:55:10;;;;;;;;;;;;;;;7.91;63.77;100933.20;1708239;84;20316;-80
2022/10/16 06:57:37;;;;;;;;;;;;;;;8.03;62.94;100928.39;1708402;84;20143;-82
2022/10/16 07:00:04;;;;;;;;;;;;;;;8.12;62.71;100927.94;1708294;84;20175;-81
2022/10/16 07:02:31;;;;;;;;;;;;;;;8.23;62.35;100932.28;1708545;84;20232;-80
2022/10/16 07:04:57;;;;;;;;;;;;;;;8.32;62.09;100929.63;1708345;82;21086;-81
2022/10/16 07:07:26;;;;;;;;;;;;;;;8.43;61.91;100927.02;1708212;84;20441;-82
2022/10/16 07:09:52;;;;;;;;;;;;;;;8.53;61.25;100923.48;1708674;82;20174;-81
2022/10/16 07:12:18;;;;;;;;;;;;;;;8.65;60.84;100922.56;1708520;82;20494;-82
2022/10/16 07:14:46;;;;;;;;;;;;;;;8.76;60.56;100929.96;1708331;82;20206;-81
2022/10/16 07:17:12;;;;;;;;;;;;;;;8.88;60.00;100923.33;1708213;84;21176;-80
2022/10/16 07:19:39;;;;;;;;;;;;;;;9.01;59.82;100924.56;1708709;84;20150;-80
2022/10/16 07:22:06;;;;;;;;;;;;;;;9.14;59.32;100931.49;1708508;84;20191;-79
2022/10/16 07:24:33;;;;;;;;;;;;;;;9.27;58.92;100933.16;1708746;84;20170;-80
2022/10/16 07:26:59;;;;;;;;;;;;;;;9.39;57.86;100941.41;1708326;84;20324;-80
2022/10/16 07:29:26;;;;;;;;;;;;;;;9.53;57.50;100945.69;1708319;84;21148;-82
2022/10/16 07:31:52;;;;;;;;;;;;;;;9.65;57.09;100945.62;1708151;84;20429;-81
2022/10/16 07:34:19;;;;;;;;;;;;;;;9.79;56.97;100948.13;1708595;84;20214;-79
2022/10/16 07:36:50;;;;;;;;;;;;;;;9.92;56.32;100937.94;1708385;84;20919;-81
2022/10/16 07:39:17;;;;;;;;;;;;;;;10.04;55.58;100944.38;1708564;84;20174;-80
2022/10/16 07:41:45;;;;;;;;;;;;;;;10.17;55.41;100938.99;1708294;84;20205;-81
2022/10/16 07:44:11;;;;;;;;;;;;;;;10.29;55.04;100946.78;1708326;84;20205;-81
2022/10/16 07:46:38;;;;;;;;;;;;;;;10.40;54.62;100947.55;1708348;84;20175;-81
2022/10/16 07:49:04;;;;;;;;;;;;;;;10.52;54.46;100940.41;1708215;84;20519;-81
2022/10/16 07:51:31;;;;;;;;;;;;;;;10.65;54.21;100945.95;1708439;84;20210;-81
2022/10/16 07:53:57;;;;;;;;;;;;;;;10.76;53.99;100929.59;1708224;84;21162;-81
2022/10/16 07:56:23;;;;;;;;;;;;;;;10.90;53.34;100935.13;1708288;84;20353;-80
2022/10/16 07:58:50;;;;;;;;;;;;;;;11.03;52.96;100934.08;1708301;84;20138;-81
2022/10/16 08:01:16;;;;;;;;;;;;;;;11.14;52.12;100941.36;1708933;84;20520;-80
2022/10/16 08:03:47;;;;;;;;;;;;;;;11.26;51.54;100942.08;1708495;84;20198;-81
2022/10/16 08:06:14;;;;;;;;;;;;;;;11.35;51.34;100939.33;1708796;84;21216;-81
2022/10/16 08:08:40;;;;;;;;;;;;;;;11.44;50.59;100944.44;1708283;84;20197;-80
2022/10/16 08:11:06;;;;;;;;;;;;;;;11.51;49.92;100943.91;1708714;84;20149;-81
2022/10/16 08:13:33;;;;;;;;;;;;;;;11.57;49.30;100934.59;1708585;84;20429;-81
2022/10/16 08:15:59;;;;;;;;;;;;;;;11.64;48.71;100938.00;1708488;84;20209;-81
2022/10/16 08:18:26;;;;;;;;;;;;;;;11.62;47.99;100929.25;1708580;84;21145;-81
2022/10/16 08:20:58;;;;;;;;;;;;;;;11.58;48.85;100930.18;1708460;84;20205;-80
2022/10/16 08:23:25;;;;;;;;;;;;;;;11.64;48.87;100936.69;1708477;84;20211;-81
2022/10/16 08:25:54;;;;;;;;;;;;;;;11.74;49.16;100939.59;1708270;84;20186;-81
2022/10/16 08:28:21;;;;;;;;;;;;;;;11.84;49.05;100933.26;1707072;84;20182;-79
2022/10/16 08:30:47;;;;;;;;;;;;;;;11.98;48.79;100942.27;1699473;84;21836;-80
2022/10/16 08:33:13;;;;;;;;;;;;;;;12.06;47.79;100939.52;1695854;84;20532;-81
2022/10/16 08:35:40;;;;;;;;;;;;;;;12.12;47.42;100936.77;1695916;84;20242;-81
2022/10/16 08:38:07;;;;;;;;;;;;;;;12.13;46.53;100938.95;1695820;84;20179;-82
2022/10/16 08:40:35;;;;;;;;;;;;;;;12.11;47.12;100938.98;1695977;84;20203;-84
2022/10/16 08:43:08;;;;;;;;;;;;;;;12.18;46.97;100937.96;1695787;84;21123;-82
2022/10/16 08:46:02;;;;;;;;;;;;;;;12.29;47.02;100935.56;1695643;84;20238;-80
2022/10/16 08:48:36;;;;;;;;;;;;;;;12.39;45.70;100933.17;1695867;84;20209;-81
2022/10/16 08:51:03;;;;;;;;;;;;;;;12.48;45.56;100935.64;1695179;84;20642;-79
2022/10/16 08:53:31;;;;;;;;;;;;;;;12.56;44.86;100936.83;1695890;84;20206;-81
2022/10/16 08:55:58;;;;;;;;;;;;;;;12.60;45.14;100939.34;1696263;84;21100;-82
2022/10/16 08:58:28;;;;;;;;;;;;;;;12.67;44.53;100937.45;1695856;84;20178;-81
2022/10/16 09:01:07;;;;;;;;;;;;;;;12.70;44.58;100945.78;1696004;84;20225;-80
2022/10/16 09:03:37;;;;;;;;;;;;;;;12.76;44.82;100935.96;1695308;84;20225;-81
2022/10/16 09:06:24;;;;;;;;;;;;;;;12.85;44.95;100937.53;1696246;84;20187;-78
2022/10/16 09:09:21;;;;;;;;;;;;;;;12.95;44.13;100941.71;1695677;84;20752;-77
2022/10/16 09:11:52;;;;;;;;;;;;;;;13.02;43.56;100930.56;1696001;84;20208;-78
2022/10/16 09:14:41;;;;;;;;;;;;;;;13.07;43.72;100935.75;1695764;84;20182;-79
2022/10/16 09:17:22;;;;;;;;;;;;;;;13.13;43.22;100935.16;1695503;84;20229;-79
2022/10/16 09:20:08;;;;;;;;;;;;;;;13.19;43.52;100944.25;1695813;84;20573;-80
2022/10/16 09:22:35;;;;;;;;;;;;;;;13.28;43.63;100941.87;1695134;84;21951;-81
2022/10/16 09:25:03;;;;;;;;;;;;;;;13.36;44.19;100949.22;1695787;84;20553;-80
2022/10/16 09:27:30;;;;;;;;;;;;;;;13.44;43.72;100945.52;1684166;84;20206;-80
2022/10/16 09:29:57;;;;;;;;;;;;;;;13.55;44.26;100947.45;1695991;84;20333;-80
2022/10/16 09:32:23;;;;;;;;;;;;;;;13.63;43.87;100937.54;1695669;84;20222;-81
2022/10/16 09:34:54;;;;;;;;;;;;;;;13.71;43.67;100935.58;1696057;84;21794;-79
2022/10/16 09:37:21;;;;;;;;;;;;;;;13.81;43.67;100936.22;1695997;84;20197;-80
2022/10/16 09:39:51;;;;;;;;;;;;;;;13.91;43.20;100932.43;1696125;84;20199;-79
2022/10/16 09:42:23;;;;;;;;;;;;;;;14.00;42.85;100927.34;1695887;84;20258;-81
2022/10/16 09:44:50;;;;;;;;;;;;;;;14.10;42.84;100928.87;1696034;84;20214;-78
2022/10/16 09:47:20;;;;;;;;;;;;;;;14.15;42.58;100914.63;1695793;84;21154;-80
2022/10/16 09:50:02;;;;;;;;;;;;;;;14.23;42.80;100920.59;1695941;84;20508;-83
2022/10/16 09:52:30;;;;;;;;;;;;;;;14.32;42.17;100912.38;1695735;84;20416;-82
2022/10/16 09:55:02;;;;;;;;;;;;;;;14.44;41.92;100901.46;1695945;84;20230;-83
2022/10/16 09:57:30;;;;;;;;;;;;;;;14.56;41.90;100902.00;1695679;84;20198;-83
2022/10/16 09:59:57;;;;;;;;;;;;;;;14.67;41.56;100905.24;1695834;84;21151;-82
2022/10/16 10:02:38;;;;;;;;;;;;;;;14.69;40.96;100902.09;1695864;84;20135;-81
2022/10/16 10:05:06;;;;;;;;;;;;;;;14.68;41.15;100895.07;1695671;84;20226;-83
2022/10/16 10:07:35;;;;;;;;;;;;;;;14.75;41.53;100892.64;1695832;84;20438;-81
2022/10/16 10:10:03;;;;;;;;;;;;;;;14.85;41.10;100892.77;1695558;84;20198;-80
2022/10/16 10:12:33;;;;;;;;;;;;;;;14.94;41.35;100900.03;1695751;84;20198;-79
2022/10/16 10:15:06;;;;;;;;;;;;;;;14.99;40.71;100891.48;1695665;84;20627;-80
2022/10/16 10:17:33;;;;;;;;;;;;;;;15.06;40.75;100883.74;1695941;84;20203;-81
2022/10/16 10:20:27;;;;;;;;;;;;;;;15.09;40.36;100878.35;1673881;84;20175;-81
2022/10/16 10:22:55;;;;;;;;;;;;;;;15.15;40.52;100873.33;1695407;84;20198;-81
2022/10/16 10:25:34;;;;;;;;;;;;;;;15.19;39.94;100866.53;1695859;84;21571;-80
2022/10/16 10:28:10;;;;;;;;;;;;;;;15.22;39.75;100851.86;1695552;84;20528;-81
2022/10/16 10:30:46;;;;;;;;;;;;;;;15.25;39.20;100857.53;1700401;83;20210;-82
2022/10/16 10:33:19;;;;;;;;;;;;;;;15.27;39.78;100853.51;1708013;84;20213;-81
2022/10/16 10:36:16;;;;;;;;;;;;;;;15.29;39.48;100854.32;1708771;84;20212;-81
2022/10/16 10:38:54;;;;;;;;;;;;;;;15.32;39.63;100858.20;1708363;84;21155;-82
2022/10/16 10:41:36;;;;;;;;;;;;;;;15.40;39.62;100861.47;1708834;84;20209;-81
2022/10/16 10:44:35;;;;;;;;;;;;;;;15.47;39.75;100852.38;1708308;84;20208;-81
2022/10/16 10:47:32;;;;;;;;;;;;;;;15.57;39.62;100852.48;1708549;84;20181;-80
2022/10/16 10:50:21;;;;;;;;;;;;;;;15.70;39.67;100846.30;1708107;84;20539;-82
2022/10/16 10:53:09;;;;;;;;;;;;;;;15.77;39.04;100856.28;1708154;84;21117;-81
2022/10/16 10:55:49;;;;;;;;;;;;;;;15.81;38.59;100859.22;1708118;84;20413;-81
2022/10/16 10:58:22;;;;;;;;;;;;;;;15.85;38.19;100859.97;1708575;82;20249;-83
2022/10/16 11:01:10;;;;;;;;;;;;;;;15.87;39.06;100853.70;1707992;83;20214;-80
2022/10/16 11:03:49;;;;;;;;;;;;;;;15.95;38.68;100855.63;1708623;84;20520;-82
2022/10/16 11:06:18;;;;;;;;;;;;;;;16.06;38.04;100849.07;1708272;84;21805;-81
2022/10/16 11:08:50;;;;;;;;;;;;;;;16.12;37.79;100864.76;1708482;84;20210;-81
2022/10/16 11:11:41;;;;;;;;;;;;;;;16.18;38.13;100869.86;1708160;84;20221;-82
2022/10/16 11:14:16;;;;;;;;;;;;;;;16.26;38.09;100862.48;1708006;84;20201;-80
2022/10/16 11:16:48;;;;;;;;;;;;;;;16.39;37.83;100866.00;1708647;83;20233;-82
2022/10/16 11:19:30;;;;;;;;;;;;;;;16.52;37.68;100873.91;1708901;84;21111;-81
2022/10/16 11:22:01;;;;;;;;;;;;;;;16.59;37.44;100872.75;1708860;84;20184;-81
2022/10/16 11:24:32;;;;;;;;;;;;;;;16.64;37.43;100878.79;1708862;84;20505;-81
2022/10/16 11:26:58;;;;;;;;;;;;;;;16.71;36.93;100877.63;1703682;84;20210;-81
2022/10/16 11:29:27;;;;;;;;;;;;;;;16.78;36.02;100878.25;1708421;84;20205;-82
2022/10/16 11:31:59;;;;;;;;;;;;;;;16.79;36.40;100883.95;1708292;83;21850;-83
2022/10/16 11:34:38;;;;;;;;;;;;;;;16.81;36.68;100879.91;1708197;84;20212;-83
2022/10/16 11:37:08;;;;;;;;;;;;;;;16.87;36.53;100878.38;1708423;84;20238;-83
2022/10/16 11:39:34;;;;;;;;;;;;;;;16.98;36.52;100881.50;1707858;84;20635;-81
2022/10/16 11:42:10;;;;;;;;;;;;;;;17.06;36.42;100882.06;1708178;84;20139;-82
2022/10/16 11:45:09;;;;;;;;;;;;;;;17.16;36.77;100880.35;1708277;84;21162;-82
2022/10/16 11:47:52;;;;;;;;;;;;;;;17.26;36.04;100873.73;1708174;84;20223;-80
2022/10/16 11:50:45;;;;;;;;;;;;;;;17.32;35.46;100872.16;1708478;84;20209;-83
2022/10/16 11:53:18;;;;;;;;;;;;;;;17.34;35.82;100864.97;1708350;84;20573;-82
2022/10/16 11:55:44;;;;;;;;;;;;;;;17.40;36.11;100863.40;1708452;84;20174;-82
2022/10/16 11:58:34;;;;;;;;;;;;;;;17.54;35.02;100856.64;1708352;84;21159;-80
2022/10/16 12:01:19;;;;;;;;;;;;;;;17.58;34.88;100863.07;1708149;84;20218;-82
2022/10/16 12:03:55;;;;;;;;;;;;;;;17.62;35.22;100865.16;1708502;84;20214;-81
2022/10/16 12:06:44;;;;;;;;;;;;;;;17.75;34.82;100868.15;1708080;84;20201;-82
2022/10/16 12:09:14;;;;;;;;;;;;;;;17.79;34.30;100866.63;1708366;84;20209;-81
2022/10/16 12:11:40;;;;;;;;;;;;;;;17.81;35.30;100875.41;1708341;84;21145;-81
2022/10/16 12:14:16;;;;;;;;;;;;;;;17.91;35.26;100872.39;1708395;84;20190;-82
2022/10/16 12:16:58;;;;;;;;;;;;;;;18.00;34.90;100881.30;1708520;84;20174;-83
2022/10/16 12:19:26;;;;;;;;;;;;;;;18.14;34.27;100872.69;1708470;84;20138;-80
2022/10/16 12:21:56;;;;;;;;;;;;;;;18.29;33.83;100871.14;1708476;84;20491;-80
2022/10/16 12:24:37;;;;;;;;;;;;;;;18.39;33.59;100871.13;1708204;84;21142;-81
2022/10/16 12:27:26;;;;;;;;;;;;;;;18.45;33.40;100869.52;1708120;84;20543;-82
2022/10/16 12:29:58;;;;;;;;;;;;;;;18.57;33.52;100864.09;1708629;84;20477;-82
2022/10/16 12:32:35;;;;;;;;;;;;;;;18.74;33.51;100873.97;1697956;84;21083;-81
2022/10/16 12:35:02;;;;;;;;;;;;;;;18.84;33.16;100872.62;1695630;84;20182;-81
2022/10/16 12:37:34;;;;;;;;;;;;;;;18.92;33.04;100865.13;1695900;84;21114;-82
2022/10/16 12:40:13;;;;;;;;;;;;;;;19.04;33.14;100873.48;1695669;84;20196;-83
2022/10/16 12:42:39;;;;;;;;;;;;;;;19.21;32.73;100865.98;1695943;84;20198;-80
2022/10/16 12:45:26;;;;;;;;;;;;;;;19.44;32.62;100865.71;1695855;84;20218;-82
2022/10/16 12:47:54;;;;;;;;;;;;;;;19.74;32.41;100869.59;1696006;84;20206;-82
2022/10/16 12:50:37;;;;;;;;;;;;;;;20.16;31.99;100869.67;1696007;84;21135;-83
2022/10/16 12:53:20;;;;;;;;;;;;;;;20.62;31.65;100868.50;1695761;84;20488;-81
2022/10/16 12:55:50;;;;;;;;;;;;;;;21.27;30.93;100864.43;1695872;84;20262;-83
2022/10/16 12:58:37;;;;;;;;;;;;;;;22.19;29.51;100855.88;1695825;84;20222;-82
2022/10/16 13:01:22;;;;;;;;;;;;;;;23.40;28.39;100851.28;1678917;84;20174;-83